Magda, Louisiana
Current Conditions -  °F | °C
As of 1:53 PM on Thursday 18 Dec 2014 (Local Time) from KAEX Reporting Station
Overcast Overcast  
Wind Chill: 53°   Ceiling: 700
Heat Index: 53°   Visibility: 9mi
Dew Point: 50°   Wind: 5mph
Humidity: 89%   Direction: 100°E
Pressure: 30.1"   Gusts: NA
Location:  31.2912°N, 92.5491°W
Report Text: KAEX 181953Z 10004KT 9SM BKN007 OVC012 12/10 A3010 RMK AO2 RAE45 SLP198 P0000 T01170100
Loading
Personal Weather Stations






























Interactive Weather Map New forecast layout! Learn more

10-Day Weather Forecast

Advertisements
Track Severe Weather on mobile